AirNav   TITAN Aviation Fuels
 
 1713 users online  

4WA0 B & G Farms Airport
Royal City, Washington, USA

GOING TO ROYAL CITY?


FAA INFORMATION EFFECTIVE 04 NOVEMBER 2021

Location

FAA Identifier: 4WA0
Lat/Long: 46-55-41.0000N 119-44-21.0000W
46-55.683333N 119-44.350000W
46.9280556,-119.7391667
(estimated)
Elevation: 1175 ft. / 358 m (estimated)
Variation: 19E (1995)
From city: 5 miles WNW of ROYAL CITY, WA
Time zone: UTC -8 (UTC -7 during Daylight Saving Time)
Zip code: 99357

Airport Operations

Airport use: Private use. Permission required prior to landing
Activation date: 03/1996
Control tower: no
ARTCC: SEATTLE CENTER
FSS: SEATTLE FLIGHT SERVICE STATION
Attendance: ON CALL
Segmented circle: no

Nearby radio navigation aids

VOR radial/distance  VOR name  Freq  Var
MWHr207/24.2MOSES LAKE VOR/DME115.0018E
EPHr184/29.9EPHRATA VORTAC112.6021E
ELNr080/30.0ELLENSBURG VOR/DME117.9021E
EATr131/34.2WENATCHEE VOR/DME111.0015E
YKMr032/36.1YAKIMA VORTAC116.0021E

Airport Services

Runway Information

Runway 7/25

Dimensions: 3700 x 65 ft. / 1128 x 20 m
Surface: asphalt
RUNWAY 7  RUNWAY 25
Traffic pattern: leftleft
Markings: basicbasic
Obstructions: 30 ft. bldg, 300 ft. from runway30 ft. trees, 700 ft. from runway

Airport Ownership and Management from official FAA records

Ownership: Privately-owned
Owner: B & G FARMS INC
12088 ROAD 11 SW
ROYAL CITY, WA 99357
Phone 509-346-2294
Manager: MIKE BROWN
12088 ROAD 11 SW
ROYAL CITY, WA 99357
Phone 509-346-2294

Airport Operational Statistics

Aircraft based on the field: 2
Single engine airplanes: 2
    

Additional Remarks

FOR CD CTC GRANT COUNTY APCH AT 509-762-2842, WHEN APCH CLSD CTC SEATTLE ARTCC AT 253-351-3694.

Instrument Procedures

There are no published instrument procedures at 4WA0.

Some nearby airports with instrument procedures:

KMWH - Grant County International Airport (24 nm NE)
KEPH - Ephrata Municipal Airport (25 nm N)
KELN - Bowers Field Airport (33 nm W)
KEAT - Pangborn Memorial Airport (34 nm NW)
KYKM - Yakima Air Terminal/McAllister Field (40 nm SW)
 
Loc | Ops | Rwys | IFR | FBO | Links
Com | Nav | Svcs | Stats | Notes
Area around 4WA0 (B & G Farms Airport)
 
Road maps at: MapQuest Bing Google
 
Aerial photo
No photo
 
Sectional chart

 
Airport distance calculator
Flying to B & G Farms Airport? Find the distance to fly.

From to 4WA0

Sunrise and sunset
Times for 30-Nov-2021
 Local
(UTC-8)
 Zulu
(UTC)
Morning civil twilight06:4914:49
Sunrise07:2415:24
Sunset16:1200:12
Evening civil twilight16:4600:46

Current date and time
Zulu (UTC)  30-Nov-2021 20:03:30
Local (UTC-8)  30-Nov-2021 12:03:30
 
METAR
KMWH 
24nm NE 
301952Z 21010KT 10SM CLR 13/04 A3010 RMK AO2 SLP195 T01330039
KEPH 
24nm N 
301953Z AUTO 00000KT 10SM SCT065 13/07 A3007 RMK AO2 SLP187 T01280067
KELN 
33nm W 
301953Z AUTO 31023G30KT 10SM OVC050 14/05 A3010 RMK AO2 PK WND 31031/1942 SLP197 T01440050
KEAT 
34nm NW 
301955Z AUTO 00000KT 10SM FEW055 12/04 A3007 RMK AO2 SLP185 T01170044
K1S5 
37nm S 
301955Z AUTO 22012G18KT 10SM OVC075 17/07 A3013 RMK AO2 T01660065
KYKM 
39nm SW 
301953Z 11004KT 10SM FEW060 SCT085 11/07 A3010 RMK AO2 SLP199 T01060067
KRLD 
41nm SE 
301955Z AUTO 21018G25KT 10SM OVC090 17/08 A3014 RMK AO2 T01650080
TAF
KMWH 
24nm NE 
301738Z 3018/0118 20011G14KT P6SM SCT080 BKN150 FM010000 20010KT P6SM BKN060 FM010500 19006KT P6SM BKN100 WS020/24034KT
NOTAMs
Click for the latest NOTAMs
NOTAMs are issued by the DoD/FAA and will open in a separate window not controlled by AirNav.

 

 
 

Would you like to see your business listed on this page?

 If your business provides an interesting product or service to pilots, flight crews, aircraft, or users of the B & G Farms Airport, you should consider listing it here.  To start the listing process, click on the button below
 
Add a business
 

Other Pages about B & G Farms Airport

Update a link
 
Copyright © AirNav, LLC. All rights reserved. Privacy Policy  Contact